Time;durP1;ratioP1;P1;durP2;ratioP2;P2;SDS_P1;SDS_P2;PMS_P1;PMS_P2;Temp;Humidity;BMP_temperature;BMP_pressure;BME280_temperature;BME280_humidity;BME280_pressure;Samples;Min_cycle;Max_cycle;Signal;HPM_P1;HPM_P2
2021/06/18 00:01:27;;;;;;;;;;;;;;;17.76;100.00;100322.28;5116827;28;19912;-71
2021/06/18 00:03:53;;;;;;;;;;;;;;;17.64;100.00;100313.00;5116766;28;19912;-71
2021/06/18 00:06:18;;;;;;;;;;;;;;;17.70;100.00;100307.84;5116559;28;19916;-71
2021/06/18 00:08:43;;;;;;;;;;;;;;;17.67;100.00;100304.72;5098379;28;19945;-71
2021/06/18 00:11:09;;;;;;;;;;;;;;;17.63;100.00;100311.38;5116350;28;19927;-71
2021/06/18 00:13:34;;;;;;;;;;;;;;;17.63;100.00;100306.88;5098929;28;19912;-71
2021/06/18 00:15:59;;;;;;;;;;;;;;;17.60;100.00;100299.28;5098545;28;19911;-71
2021/06/18 00:18:25;;;;;;;;;;;;;;;17.43;100.00;100300.31;5116871;28;19970;-71
2021/06/18 00:20:50;;;;;;;;;;;;;;;17.38;100.00;100297.34;5116523;28;19947;-71
2021/06/18 00:23:15;;;;;;;;;;;;;;;17.22;100.00;100293.75;5116436;28;19998;-71
2021/06/18 00:25:42;;;;;;;;;;;;;;;17.18;100.00;100289.78;5097904;28;19918;-71
2021/06/18 00:28:08;;;;;;;;;;;;;;;17.04;100.00;100282.50;5116168;28;19919;-71
2021/06/18 00:30:34;;;;;;;;;;;;;;;17.03;100.00;100280.03;5116011;28;19919;-71
2021/06/18 00:32:59;;;;;;;;;;;;;;;17.04;100.00;100277.19;5116566;28;19964;-71
2021/06/18 00:35:24;;;;;;;;;;;;;;;17.21;100.00;100278.84;5116222;28;19911;-71
2021/06/18 00:37:49;;;;;;;;;;;;;;;17.20;100.00;100271.88;5116029;28;19918;-71
2021/06/18 00:40:15;;;;;;;;;;;;;;;17.22;100.00;100266.44;5116049;28;19912;-71
2021/06/18 00:42:40;;;;;;;;;;;;;;;17.25;100.00;100281.16;5116073;28;19923;-71
2021/06/18 00:45:06;;;;;;;;;;;;;;;17.17;100.00;100279.34;5115972;28;19912;-71
2021/06/18 00:47:32;;;;;;;;;;;;;;;17.25;100.00;100268.75;5097642;28;19912;-71
2021/06/18 00:49:57;;;;;;;;;;;;;;;17.29;100.00;100267.41;5115933;28;19916;-71
2021/06/18 00:52:23;;;;;;;;;;;;;;;17.35;100.00;100281.81;5115715;28;19919;-71
2021/06/18 00:54:49;;;;;;;;;;;;;;;17.38;100.00;100276.16;5115165;28;19965;-71
2021/06/18 00:57:15;;;;;;;;;;;;;;;17.31;100.00;100278.66;5114723;28;19915;-72
2021/06/18 00:59:40;;;;;;;;;;;;;;;17.18;100.00;100281.00;5114941;28;19973;-71
2021/06/18 01:02:05;;;;;;;;;;;;;;;16.88;100.00;100277.25;5115053;28;20275;-72
2021/06/18 01:04:32;;;;;;;;;;;;;;;16.85;100.00;100278.38;5114936;28;19918;-71
2021/06/18 01:07:02;;;;;;;;;;;;;;;16.90;100.00;100276.06;5114984;28;19989;-71
2021/06/18 01:09:31;;;;;;;;;;;;;;;16.91;100.00;100277.72;5114676;28;20382;-72
2021/06/18 01:11:59;;;;;;;;;;;;;;;16.93;100.00;100277.56;5114795;28;20060;-71
2021/06/18 01:14:43;;;;;;;;;;;;;;;17.01;100.00;100282.84;5114738;28;19912;-72
2021/06/18 01:17:17;;;;;;;;;;;;;;;17.14;100.00;100283.16;5115080;28;19911;-72
2021/06/18 01:20:01;;;;;;;;;;;;;;;17.15;100.00;100284.00;5115306;28;19958;-71
2021/06/18 01:22:28;;;;;;;;;;;;;;;17.05;100.00;100270.94;5115032;28;19912;-71
2021/06/18 01:25:09;;;;;;;;;;;;;;;17.09;100.00;100271.41;5096912;28;20004;-72
2021/06/18 01:27:42;;;;;;;;;;;;;;;16.98;100.00;100276.06;5114968;28;19920;-72
2021/06/18 01:30:18;;;;;;;;;;;;;;;17.05;100.00;100276.22;5114851;28;20006;-72
2021/06/18 01:32:52;;;;;;;;;;;;;;;16.96;100.00;100267.44;5097429;28;19911;-71
2021/06/18 01:35:19;;;;;;;;;;;;;;;16.89;100.00;100271.75;5114927;28;20307;-72
2021/06/18 01:37:54;;;;;;;;;;;;;;;16.87;100.00;100279.03;5114889;28;19912;-71
2021/06/18 01:40:20;;;;;;;;;;;;;;;16.97;100.00;100273.56;5114757;28;19915;-71
2021/06/18 01:42:47;;;;;;;;;;;;;;;17.08;100.00;100273.25;5114909;28;19923;-71
2021/06/18 01:45:14;;;;;;;;;;;;;;;17.06;100.00;100275.22;5114568;28;19918;-71
2021/06/18 01:47:41;;;;;;;;;;;;;;;17.14;100.00;100274.38;5114596;28;19922;-71
2021/06/18 01:50:08;;;;;;;;;;;;;;;17.18;100.00;100281.84;5096314;28;19912;-71
2021/06/18 01:52:34;;;;;;;;;;;;;;;17.24;100.00;100277.66;5114674;28;20358;-71
2021/06/18 01:55:02;;;;;;;;;;;;;;;17.29;100.00;100275.34;5114904;28;19973;-72
2021/06/18 01:57:28;;;;;;;;;;;;;;;17.33;100.00;100278.50;5096700;28;19912;-71
2021/06/18 01:59:55;;;;;;;;;;;;;;;17.42;100.00;100278.31;5114521;28;20006;-71
2021/06/18 02:02:21;;;;;;;;;;;;;;;17.51;100.00;100287.03;5114428;28;19961;-72
2021/06/18 02:04:47;;;;;;;;;;;;;;;17.45;100.00;100283.28;5113662;28;19911;-71
2021/06/18 02:07:14;;;;;;;;;;;;;;;17.23;100.00;100284.78;5096091;28;19961;-71
2021/06/18 02:09:41;;;;;;;;;;;;;;;17.11;100.00;100280.00;5114215;28;19915;-71
2021/06/18 02:12:07;;;;;;;;;;;;;;;16.98;100.00;100277.91;5114679;28;19911;-71
2021/06/18 02:14:33;;;;;;;;;;;;;;;17.05;100.00;100276.22;5096048;28;20289;-71
2021/06/18 02:17:01;;;;;;;;;;;;;;;17.00;100.00;100281.19;5114336;28;19922;-71
2021/06/18 02:19:28;;;;;;;;;;;;;;;16.99;100.00;100282.19;5111781;28;19980;-71
2021/06/18 02:21:54;;;;;;;;;;;;;;;17.03;100.00;100288.78;5099904;28;19923;-71
2021/06/18 02:24:21;;;;;;;;;;;;;;;17.06;100.00;100293.75;5112737;28;19920;-71
2021/06/18 02:26:47;;;;;;;;;;;;;;;17.20;100.00;100294.91;5095697;28;19947;-71
2021/06/18 02:29:12;;;;;;;;;;;;;;;17.21;100.00;100307.97;5113772;28;20406;-71
2021/06/18 02:31:39;;;;;;;;;;;;;;;17.34;100.00;100301.31;5112989;28;19911;-71
2021/06/18 02:34:06;;;;;;;;;;;;;;;17.32;100.00;100303.34;5112950;28;19911;-71
2021/06/18 02:36:31;;;;;;;;;;;;;;;17.30;100.00;100286.78;5112821;28;19911;-71
2021/06/18 02:38:57;;;;;;;;;;;;;;;17.33;100.00;100294.38;5094458;28;20074;-70
2021/06/18 02:41:22;;;;;;;;;;;;;;;17.34;100.00;100296.03;5112445;28;19995;-71
2021/06/18 02:43:48;;;;;;;;;;;;;;;17.36;100.00;100291.41;5112649;28;19912;-71
2021/06/18 02:46:20;;;;;;;;;;;;;;;17.37;100.00;100290.41;5112666;28;19918;-70
2021/06/18 02:48:48;;;;;;;;;;;;;;;17.42;100.00;100290.72;5112118;28;19916;-70
2021/06/18 02:51:25;;;;;;;;;;;;;;;17.28;100.00;100289.59;5113844;28;20359;-70
2021/06/18 02:54:09;;;;;;;;;;;;;;;17.30;100.00;100289.41;5113119;28;19918;-70
2021/06/18 02:56:39;;;;;;;;;;;;;;;17.30;100.00;100279.66;5112025;28;19918;-70
2021/06/18 02:59:13;;;;;;;;;;;;;;;17.26;100.00;100278.34;5112023;28;19919;-70
2021/06/18 03:01:39;;;;;;;;;;;;;;;17.06;100.00;100285.81;5093319;28;19964;-70
2021/06/18 03:04:06;;;;;;;;;;;;;;;17.00;100.00;100279.34;5111761;28;19916;-70
2021/06/18 03:06:34;;;;;;;;;;;;;;;17.04;100.00;100282.50;5093834;28;19911;-70
2021/06/18 03:09:00;;;;;;;;;;;;;;;17.16;100.00;100283.81;5112153;28;19915;-70
2021/06/18 03:11:30;;;;;;;;;;;;;;;17.24;100.00;100290.91;5095422;28;19960;-70
2021/06/18 03:13:56;;;;;;;;;;;;;;;17.22;100.00;100288.44;5113349;28;19919;-70
2021/06/18 03:16:23;;;;;;;;;;;;;;;17.30;100.00;100290.25;5094236;28;19960;-70
2021/06/18 03:18:50;;;;;;;;;;;;;;;17.34;100.00;100283.59;5095252;28;19912;-71
2021/06/18 03:21:16;;;;;;;;;;;;;;;17.40;100.00;100293.53;5113433;28;19911;-70
2021/06/18 03:23:42;;;;;;;;;;;;;;;17.47;100.00;100297.16;5094898;28;19964;-71
2021/06/18 03:26:08;;;;;;;;;;;;;;;17.41;100.00;100299.66;5113063;28;20393;-71
2021/06/18 03:28:34;;;;;;;;;;;;;;;17.33;100.00;100291.72;5112990;28;19920;-70
2021/06/18 03:31:01;;;;;;;;;;;;;;;17.29;100.00;100290.44;5112443;28;19924;-70
2021/06/18 03:33:27;;;;;;;;;;;;;;;17.18;100.00;100281.00;5112843;28;19911;-70
2021/06/18 03:35:53;;;;;;;;;;;;;;;17.17;100.00;100279.34;5113196;28;19944;-70
2021/06/18 03:38:19;;;;;;;;;;;;;;;17.26;100.00;100282.81;5094876;28;19911;-70
2021/06/18 03:40:45;;;;;;;;;;;;;;;17.29;100.00;100277.19;5093022;28;19916;-71
2021/06/18 03:43:12;;;;;;;;;;;;;;;17.37;100.00;100277.16;5110987;28;19923;-71
2021/06/18 03:45:42;;;;;;;;;;;;;;;17.53;100.00;100273.63;5111251;28;20378;-71
2021/06/18 03:48:12;;;;;;;;;;;;;;;17.62;100.00;100278.75;5111481;28;19919;-71
2021/06/18 03:50:38;;;;;;;;;;;;;;;17.74;100.00;100273.88;5111321;28;19912;-71
2021/06/18 03:53:03;;;;;;;;;;;;;;;17.87;100.00;100284.78;5111531;28;20318;-71
2021/06/18 03:55:29;;;;;;;;;;;;;;;17.89;100.00;100282.00;5112794;28;20010;-71
2021/06/18 03:57:55;;;;;;;;;;;;;;;17.94;100.00;100284.94;5093688;28;20405;-72
2021/06/18 04:00:21;;;;;;;;;;;;;;;18.02;100.00;100279.59;5111845;28;19927;-71
2021/06/18 04:02:48;;;;;;;;;;;;;;;18.17;100.00;100283.16;5092851;28;19916;-71
2021/06/18 04:05:14;;;;;;;;;;;;;;;18.22;100.00;100281.81;5112161;28;19912;-70
2021/06/18 04:07:43;;;;;;;;;;;;;;;18.26;100.00;100286.59;5110289;28;20388;-71
2021/06/18 04:10:08;;;;;;;;;;;;;;;18.33;100.00;100279.59;5110914;28;19912;-70
2021/06/18 04:12:35;;;;;;;;;;;;;;;18.34;100.00;100267.16;5092765;28;19920;-71
2021/06/18 04:15:00;;;;;;;;;;;;;;;18.44;100.00;100278.34;5111012;28;19984;-71
2021/06/18 04:17:26;;;;;;;;;;;;;;;18.43;100.00;100279.38;5111125;28;20366;-70
2021/06/18 04:19:52;;;;;;;;;;;;;;;18.47;100.00;100279.84;5111159;28;19918;-70
2021/06/18 04:22:24;;;;;;;;;;;;;;;18.49;100.00;100278.63;5111182;28;19961;-70
2021/06/18 04:24:49;;;;;;;;;;;;;;;18.52;100.00;100275.63;5094106;28;19911;-70
2021/06/18 04:27:14;;;;;;;;;;;;;;;18.59;100.00;100273.91;5111206;28;20461;-70
2021/06/18 04:29:40;;;;;;;;;;;;;;;18.61;100.00;100277.22;5114045;28;19960;-70
2021/06/18 04:32:05;;;;;;;;;;;;;;;18.68;100.00;100273.88;5115508;28;19912;-70
2021/06/18 04:34:30;;;;;;;;;;;;;;;18.63;100.00;100271.75;5100651;28;19919;-70
2021/06/18 04:36:56;;;;;;;;;;;;;;;18.68;100.00;100273.88;5096620;28;19930;-68
2021/06/18 04:39:21;;;;;;;;;;;;;;;18.84;100.00;100289.69;5102462;28;19927;-70
2021/06/18 04:41:46;;;;;;;;;;;;;;;19.00;100.00;100284.25;5105432;28;19920;-70
2021/06/18 04:44:12;;;;;;;;;;;;;;;19.14;100.00;100273.84;5096927;28;19919;-70
2021/06/18 04:46:37;;;;;;;;;;;;;;;19.01;100.00;100272.63;5099981;28;19916;-71
2021/06/18 04:49:03;;;;;;;;;;;;;;;19.09;100.00;100277.00;5104066;28;19920;-70
2021/06/18 04:51:28;;;;;;;;;;;;;;;19.15;100.00;100272.81;5081134;28;20139;-71
2021/06/18 04:53:54;;;;;;;;;;;;;;;19.34;100.00;100269.63;5083746;28;19920;-70
2021/06/18 04:56:19;;;;;;;;;;;;;;;19.31;100.00;100280.63;5100260;28;19919;-70
2021/06/18 04:58:45;;;;;;;;;;;;;;;19.44;100.00;100275.50;5107818;28;19916;-71
2021/06/18 05:01:10;;;;;;;;;;;;;;;19.44;100.00;100279.97;5108683;28;20305;-71
2021/06/18 05:03:36;;;;;;;;;;;;;;;19.52;100.00;100285.22;5104258;28;19998;-71
2021/06/18 05:06:01;;;;;;;;;;;;;;;19.56;100.00;100284.66;5088566;28;20064;-71
2021/06/18 05:08:27;;;;;;;;;;;;;;;19.73;100.00;100287.16;5101638;28;19967;-72
2021/06/18 05:10:52;;;;;;;;;;;;;;;19.61;100.00;100285.94;5094198;28;19954;-70
2021/06/18 05:13:17;;;;;;;;;;;;;;;19.64;100.00;100296.22;5102005;28;19916;-72
2021/06/18 05:15:43;;;;;;;;;;;;;;;19.55;100.00;100288.34;5100721;28;19922;-71
2021/06/18 05:18:08;;;;;;;;;;;;;;;19.26;100.00;100294.44;5106888;28;19923;-71
2021/06/18 05:20:34;;;;;;;;;;;;;;;19.30;100.00;100294.91;5095370;28;19924;-71
2021/06/18 05:22:59;;;;;;;;;;;;;;;19.40;100.00;100291.97;5108482;28;19930;-69
2021/06/18 05:25:24;;;;;;;;;;;;;;;19.34;100.00;100290.91;5101882;28;19942;-71
2021/06/18 05:27:49;;;;;;;;;;;;;;;19.22;100.00;100292.34;5086702;28;20019;-71
2021/06/18 05:30:16;;;;;;;;;;;;;;;19.20;100.00;100294.34;5090435;28;19920;-70
2021/06/18 05:32:42;;;;;;;;;;;;;;;19.14;100.00;100285.28;5103578;28;19927;-71
2021/06/18 05:35:07;;;;;;;;;;;;;;;19.26;100.00;100288.31;5105410;28;19911;-70
2021/06/18 05:37:33;;;;;;;;;;;;;;;19.34;100.00;100281.09;5098560;28;19919;-71
2021/06/18 05:39:58;;;;;;;;;;;;;;;19.27;100.00;100284.63;5096261;28;20351;-70
2021/06/18 05:42:23;;;;;;;;;;;;;;;19.44;100.00;100291.47;5082077;28;19955;-72
2021/06/18 05:44:49;;;;;;;;;;;;;;;19.55;100.00;100293.66;5102973;28;19968;-72
2021/06/18 05:47:14;;;;;;;;;;;;;;;19.93;100.00;100290.88;5090093;28;19970;-71
2021/06/18 05:49:39;;;;;;;;;;;;;;;20.26;100.00;100295.78;5103512;28;19956;-71
2021/06/18 05:52:05;;;;;;;;;;;;;;;20.42;100.00;100290.22;5104381;28;19911;-70
2021/06/18 05:54:30;;;;;;;;;;;;;;;20.69;100.00;100291.34;5107817;28;19911;-70
2021/06/18 05:56:56;;;;;;;;;;;;;;;20.97;100.00;100286.03;5101684;28;20393;-70
2021/06/18 05:59:21;;;;;;;;;;;;;;;21.25;100.00;100285.22;5104350;28;19915;-69
2021/06/18 06:01:46;;;;;;;;;;;;;;;21.43;100.00;100290.06;5091105;28;19922;-70
2021/06/18 06:04:12;;;;;;;;;;;;;;;21.55;100.00;100279.69;5106075;28;20378;-70
2021/06/18 06:06:37;;;;;;;;;;;;;;;21.67;100.00;100273.59;5104286;28;19935;-70
2021/06/18 06:09:03;;;;;;;;;;;;;;;21.74;100.00;100278.97;5104904;28;19915;-70
2021/06/18 06:11:30;;;;;;;;;;;;;;;21.87;100.00;100279.03;5089926;28;19927;-70
2021/06/18 06:14:03;;;;;;;;;;;;;;;22.00;100.00;100278.25;5104334;28;19960;-70
2021/06/18 06:16:32;;;;;;;;;;;;;;;22.10;100.00;100272.53;5102674;28;19916;-70
2021/06/18 06:18:58;;;;;;;;;;;;;;;22.25;100.00;100275.91;5104684;28;19922;-70
2021/06/18 06:21:23;;;;;;;;;;;;;;;22.13;100.00;100277.47;5085458;28;19927;-70
2021/06/18 06:23:50;;;;;;;;;;;;;;;22.35;100.00;100275.50;5103844;28;20756;-70
2021/06/18 06:26:15;;;;;;;;;;;;;;;22.30;100.00;100276.09;5105594;28;20018;-69
2021/06/18 06:28:41;;;;;;;;;;;;;;;22.46;100.00;100266.91;5103173;28;20019;-70
2021/06/18 06:31:06;;;;;;;;;;;;;;;22.63;100.00;100256.66;5107286;28;19933;-70
2021/06/18 06:33:31;;;;;;;;;;;;;;;22.68;100.00;100253.34;5102407;28;20003;-70
2021/06/18 06:35:57;;;;;;;;;;;;;;;22.83;100.00;100262.81;5104831;28;20306;-71
2021/06/18 06:38:22;;;;;;;;;;;;;;;22.99;100.00;100266.13;5104776;28;20302;-71
2021/06/18 06:40:48;;;;;;;;;;;;;;;23.01;100.00;100259.53;5106366;28;19976;-71
2021/06/18 06:43:14;;;;;;;;;;;;;;;23.03;100.00;100256.66;5094491;28;19920;-70
2021/06/18 06:45:39;;;;;;;;;;;;;;;23.04;100.00;100260.97;5100164;28;19974;-72
2021/06/18 06:48:05;;;;;;;;;;;;;;;23.21;100.00;100256.84;5105019;28;19915;-72
2021/06/18 06:50:30;;;;;;;;;;;;;;;23.28;100.00;100264.84;5101997;28;19978;-72
2021/06/18 06:52:55;;;;;;;;;;;;;;;23.28;100.00;100264.84;5106000;28;19919;-72
2021/06/18 06:55:21;;;;;;;;;;;;;;;23.22;100.00;100253.16;5104876;28;19915;-72
2021/06/18 06:57:46;;;;;;;;;;;;;;;23.10;100.00;100254.81;5104829;28;19995;-71
2021/06/18 07:00:12;;;;;;;;;;;;;;;23.25;100.00;100250.06;5100600;28;19965;-70
2021/06/18 07:02:37;;;;;;;;;;;;;;;23.36;100.00;100250.44;5107510;28;19922;-70
2021/06/18 07:05:03;;;;;;;;;;;;;;;23.33;100.00;100251.69;5085779;28;20417;-72
2021/06/18 07:07:28;;;;;;;;;;;;;;;23.37;100.00;100249.41;5100407;28;19923;-71
2021/06/18 07:09:54;;;;;;;;;;;;;;;23.44;100.00;100247.53;5100237;28;20314;-72
2021/06/18 07:12:19;;;;;;;;;;;;;;;23.45;100.00;100247.31;5098270;28;19920;-71
2021/06/18 07:14:44;;;;;;;;;;;;;;;23.55;100.00;100239.66;5094748;28;19915;-72
2021/06/18 07:17:10;;;;;;;;;;;;;;;23.43;100.00;100245.91;5097089;28;20925;-72
2021/06/18 07:19:35;;;;;;;;;;;;;;;23.57;100.00;100242.16;5089986;28;19916;-72
2021/06/18 07:22:01;;;;;;;;;;;;;;;23.64;100.00;100237.59;5095633;28;19931;-72
2021/06/18 07:24:26;;;;;;;;;;;;;;;23.63;100.00;100238.63;5098325;28;20292;-72
2021/06/18 07:26:52;;;;;;;;;;;;;;;23.77;100.00;100236.75;5095422;28;20481;-72
2021/06/18 07:29:17;;;;;;;;;;;;;;;23.80;100.00;100231.78;5096723;28;20298;-72
2021/06/18 07:31:45;;;;;;;;;;;;;;;23.82;100.00;100228.06;5074260;28;20318;-72
2021/06/18 07:34:11;;;;;;;;;;;;;;;23.89;100.00;100237.72;5093309;28;19908;-73
2021/06/18 07:36:36;;;;;;;;;;;;;;;23.90;100.00;100235.88;5096532;28;20371;-73
2021/06/18 07:39:03;;;;;;;;;;;;;;;23.93;100.00;100238.94;5098285;28;19914;-73
2021/06/18 07:41:29;;;;;;;;;;;;;;;23.93;100.00;100236.28;5086870;28;19938;-73
2021/06/18 07:43:54;;;;;;;;;;;;;;;23.87;100.00;100228.28;5078452;28;19919;-72
2021/06/18 07:46:23;;;;;;;;;;;;;;;23.80;100.00;100239.00;5096239;28;20478;-72
2021/06/18 07:48:48;;;;;;;;;;;;;;;23.87;100.00;100226.41;5093735;28;20014;-72
2021/06/18 07:51:13;;;;;;;;;;;;;;;23.84;100.00;100231.38;5104825;28;20015;-72
2021/06/18 07:53:39;;;;;;;;;;;;;;;23.91;100.00;100237.50;5104496;28;19923;-72
2021/06/18 07:56:06;;;;;;;;;;;;;;;23.87;100.00;100239.78;5103984;28;19920;-73
2021/06/18 07:58:32;;;;;;;;;;;;;;;23.96;100.00;100240.34;5105495;28;19951;-73
2021/06/18 08:00:57;;;;;;;;;;;;;;;23.96;100.00;100237.66;5105825;28;19957;-73
2021/06/18 08:03:23;;;;;;;;;;;;;;;23.99;100.00;100240.75;5104373;28;19920;-72
2021/06/18 08:05:48;;;;;;;;;;;;;;;24.04;100.00;100240.13;5091586;28;19959;-72
2021/06/18 08:08:14;;;;;;;;;;;;;;;24.06;100.00;100246.06;5082172;28;19920;-73
2021/06/18 08:10:39;;;;;;;;;;;;;;;24.14;100.00;100237.78;5105347;28;20343;-72
2021/06/18 08:13:05;;;;;;;;;;;;;;;24.16;100.00;100243.72;5109692;28;19926;-73
2021/06/18 08:15:30;;;;;;;;;;;;;;;24.29;100.00;100240.16;5096751;28;20420;-72
2021/06/18 08:17:56;;;;;;;;;;;;;;;24.26;100.00;100244.09;5083317;28;19919;-73
2021/06/18 08:20:22;;;;;;;;;;;;;;;24.33;100.00;100245.91;5094582;28;19916;-72
2021/06/18 08:22:48;;;;;;;;;;;;;;;24.21;100.00;100243.09;5092851;28;20002;-73
2021/06/18 08:25:14;;;;;;;;;;;;;;;24.28;100.00;100244.69;5090090;28;19926;-73
2021/06/18 08:27:39;;;;;;;;;;;;;;;24.27;100.00;100245.75;5100390;28;19924;-73
2021/06/18 08:30:06;;;;;;;;;;;;;;;24.33;100.00;100244.03;5099239;28;19920;-73
2021/06/18 08:32:31;;;;;;;;;;;;;;;24.41;100.00;100240.34;5084269;28;19954;-72
2021/06/18 08:34:56;;;;;;;;;;;;;;;24.45;100.00;100238.84;5104019;28;19955;-73
2021/06/18 08:37:22;;;;;;;;;;;;;;;24.50;100.00;100241.69;5099270;28;19992;-72
2021/06/18 08:39:47;;;;;;;;;;;;;;;24.44;100.00;100239.91;5102527;28;20367;-72
2021/06/18 08:42:12;;;;;;;;;;;;;;;24.43;100.00;100238.25;5102847;28;20450;-73
2021/06/18 08:44:38;;;;;;;;;;;;;;;24.48;100.00;100241.09;5098281;28;19919;-73
2021/06/18 08:47:03;;;;;;;;;;;;;;;24.42;100.00;100239.28;5103782;28;19912;-73
2021/06/18 08:49:29;;;;;;;;;;;;;;;24.40;100.00;100235.97;5088721;28;19919;-73
2021/06/18 08:51:54;;;;;;;;;;;;;;;24.31;100.00;100238.09;5099794;28;20310;-73
2021/06/18 08:54:19;;;;;;;;;;;;;;;24.20;100.00;100238.81;5104982;28;20006;-74
2021/06/18 08:56:45;;;;;;;;;;;;;;;24.10;100.00;100235.75;5099559;28;20036;-73
2021/06/18 08:59:10;;;;;;;;;;;;;;;24.08;100.00;100227.94;5100470;28;20409;-72
2021/06/18 09:01:36;;;;;;;;;;;;;;;24.01;100.00;100238.69;5100632;28;20308;-73
2021/06/18 09:04:05;;;;;;;;;;;;;;;23.94;100.00;100237.09;5108644;28;20065;-73
2021/06/18 09:06:31;;;;;;;;;;;;;;;23.82;100.00;100236.91;5082576;28;19953;-73
2021/06/18 09:09:16;;;;;;;;;;;;;;;23.75;100.00;100238.81;5090435;28;19922;-73
2021/06/18 09:11:45;;;;;;;;;;;;;;;23.74;100.00;100232.63;5089502;28;19953;-72
2021/06/18 09:14:13;;;;;;;;;;;;;;;23.69;100.00;100235.16;5089301;28;19919;-73
2021/06/18 09:16:39;;;;;;;;;;;;;;;23.58;100.00;100233.91;5112639;28;19937;-72
2021/06/18 09:19:04;;;;;;;;;;;;;;;23.60;100.00;100231.03;5115219;28;20445;-73
2021/06/18 09:21:29;;;;;;;;;;;;;;;23.56;100.00;100235.97;5115449;28;20286;-73
2021/06/18 09:23:55;;;;;;;;;;;;;;;23.53;100.00;100230.25;5115132;28;19911;-73
2021/06/18 09:26:22;;;;;;;;;;;;;;;23.46;100.00;100229.44;5096955;28;19981;-73
2021/06/18 09:28:57;;;;;;;;;;;;;;;23.51;100.00;100225.09;5096857;28;19919;-73
2021/06/18 09:31:23;;;;;;;;;;;;;;;23.62;100.00;100225.47;5115125;28;19920;-73
2021/06/18 09:33:48;;;;;;;;;;;;;;;23.57;100.00;100220.75;5115580;28;19911;-73
2021/06/18 09:36:13;;;;;;;;;;;;;;;23.49;100.00;100215.63;5114927;28;19911;-73
2021/06/18 09:38:43;;;;;;;;;;;;;;;23.40;100.00;100211.56;5114821;28;20065;-73
2021/06/18 09:41:28;;;;;;;;;;;;;;;23.31;100.00;100225.13;5114982;28;19911;-73
2021/06/18 09:43:57;;;;;;;;;;;;;;;23.10;100.00;100206.69;5100267;28;20003;-73
2021/06/18 09:46:38;;;;;;;;;;;;;;;23.09;100.00;100203.22;5114897;28;19918;-73
2021/06/18 09:49:03;;;;;;;;;;;;;;;23.24;100.00;100202.97;5096526;28;19911;-73
2021/06/18 09:51:28;;;;;;;;;;;;;;;23.32;100.00;100202.75;5114284;28;19911;-74
2021/06/18 09:53:54;;;;;;;;;;;;;;;23.45;100.00;100195.69;5114485;28;20010;-73
2021/06/18 09:56:19;;;;;;;;;;;;;;;23.47;100.00;100199.81;5095896;28;20326;-73
2021/06/18 09:58:45;;;;;;;;;;;;;;;23.53;100.00;100192.78;5114552;28;19968;-73
2021/06/18 10:01:31;;;;;;;;;;;;;;;23.43;100.00;100187.88;5095718;28;20347;-72
2021/06/18 10:04:04;;;;;;;;;;;;;;;23.46;100.00;100189.31;5096283;28;19922;-72
2021/06/18 10:06:31;;;;;;;;;;;;;;;23.59;100.00;100191.94;5096210;28;19918;-72
2021/06/18 10:08:57;;;;;;;;;;;;;;;23.78;100.00;100199.06;5114197;28;19955;-72
2021/06/18 10:11:22;;;;;;;;;;;;;;;23.92;100.00;100190.97;5112774;28;19947;-72
2021/06/18 10:13:48;;;;;;;;;;;;;;;23.96;100.00;100198.38;5112046;28;19947;-72
2021/06/18 10:16:16;;;;;;;;;;;;;;;24.15;100.00;100193.09;5093643;28;19933;-73
2021/06/18 10:18:42;;;;;;;;;;;;;;;24.13;100.00;100187.97;5093660;28;19912;-73
2021/06/18 10:21:07;;;;;;;;;;;;;;;24.23;100.00;100187.47;5111789;28;19911;-72
2021/06/18 10:23:33;;;;;;;;;;;;;;;24.32;100.00;100186.16;5111646;28;19923;-72
2021/06/18 10:25:59;;;;;;;;;;;;;;;24.41;100.00;100173.38;5111956;28;20427;-73
2021/06/18 10:28:26;;;;;;;;;;;;;;;24.31;100.00;100173.00;5095611;28;19975;-73
2021/06/18 10:30:52;;;;;;;;;;;;;;;24.17;100.00;100169.63;5096111;28;19962;-74
2021/06/18 10:33:38;;;;;;;;;;;;;;;23.98;100.00;100161.50;5095700;28;19911;-73
2021/06/18 10:36:04;;;;;;;;;;;;;;;24.11;100.00;100165.94;5112878;28;19912;-74
2021/06/18 10:38:33;;;;;;;;;;;;;;;24.11;100.00;100165.94;5114202;28;19932;-73
2021/06/18 10:41:04;;;;;;;;;;;;;;;23.82;100.00;100164.69;5113770;28;20005;-73
2021/06/18 10:43:37;;;;;;;;;;;;;;;23.86;100.00;100159.72;5095823;28;19922;-73
2021/06/18 10:46:04;;;;;;;;;;;;;;;23.82;100.00;100166.53;5095474;28;20389;-74
2021/06/18 10:48:58;;;;;;;;;;;;;;;23.79;100.00;100162.44;5113432;28;19912;-73
2021/06/18 10:51:30;;;;;;;;;;;;;;;23.78;100.00;100163.47;5091474;28;19915;-73
2021/06/18 10:53:59;;;;;;;;;;;;;;;23.73;100.00;100155.28;5113562;28;19912;-73
2021/06/18 10:56:43;;;;;;;;;;;;;;;23.77;100.00;100161.84;5095427;28;20280;-73
2021/06/18 10:59:09;;;;;;;;;;;;;;;23.70;100.00;100155.72;5114060;28;19911;-73
2021/06/18 11:01:35;;;;;;;;;;;;;;;23.77;100.00;100154.63;5113371;28;20370;-72
2021/06/18 11:04:01;;;;;;;;;;;;;;;23.71;100.00;100152.81;5113617;28;19915;-72
2021/06/18 11:06:45;;;;;;;;;;;;;;;23.73;100.00;100155.28;5113409;28;20306;-73
2021/06/18 11:09:33;;;;;;;;;;;;;;;23.73;100.00;100140.03;5113172;28;19916;-73
2021/06/18 11:12:18;;;;;;;;;;;;;;;23.78;100.00;100137.53;5114167;28;19922;-73
2021/06/18 11:14:44;;;;;;;;;;;;;;;23.82;100.00;100134.44;5113206;28;19912;-73
2021/06/18 11:17:28;;;;;;;;;;;;;;;23.94;100.00;100124.69;5113389;28;20356;-73
2021/06/18 11:19:54;;;;;;;;;;;;;;;23.98;100.00;100123.22;5113189;28;19912;-73
2021/06/18 11:22:37;;;;;;;;;;;;;;;24.10;100.00;100124.16;5113455;28;19969;-73
2021/06/18 11:25:04;;;;;;;;;;;;;;;24.12;100.00;100119.38;5113278;28;19911;-73
2021/06/18 11:27:30;;;;;;;;;;;;;;;24.21;100.00;100114.59;5094919;28;19919;-73
2021/06/18 11:30:15;;;;;;;;;;;;;;;24.26;100.00;100118.22;5094902;28;19919;-73
2021/06/18 11:32:44;;;;;;;;;;;;;;;24.32;100.00;100115.72;5113130;28;19939;-73
2021/06/18 11:35:28;;;;;;;;;;;;;;;24.35;100.00;100115.31;5094927;28;19912;-73
2021/06/18 11:37:54;;;;;;;;;;;;;;;24.32;100.00;100108.50;5113647;28;20401;-73
2021/06/18 11:40:23;;;;;;;;;;;;;;;24.44;100.00;100114.03;5099083;28;19919;-73
2021/06/18 11:42:48;;;;;;;;;;;;;;;24.52;100.00;100115.59;5117232;28;19922;-73
2021/06/18 11:45:14;;;;;;;;;;;;;;;24.45;100.00;100107.63;5117241;28;19911;-73
2021/06/18 11:47:41;;;;;;;;;;;;;;;24.61;100.00;100115.09;5117228;28;19994;-73
2021/06/18 11:50:07;;;;;;;;;;;;;;;24.72;100.00;100121.56;5098736;28;19958;-73
2021/06/18 11:52:32;;;;;;;;;;;;;;;24.65;100.00;100118.16;5117179;28;20383;-72
2021/06/18 11:55:01;;;;;;;;;;;;;;;24.82;100.00;100121.88;5117039;28;19917;-73
2021/06/18 11:57:27;;;;;;;;;;;;;;;24.88;100.00;100120.19;5098725;28;19915;-73
2021/06/18 11:59:54;;;;;;;;;;;;;;;24.84;100.00;100118.97;5117003;28;19911;-73
2021/06/18 12:02:22;;;;;;;;;;;;;;;24.98;100.00;100117.78;5098390;28;19912;-72
2021/06/18 12:04:59;;;;;;;;;;;;;;;24.98;100.00;100112.44;5117041;28;19912;-73
2021/06/18 12:07:29;;;;;;;;;;;;;;;25.08;100.00;100118.09;5098522;28;20279;-73
2021/06/18 12:09:55;;;;;;;;;;;;;;;25.22;100.00;100120.66;5081106;28;20763;-72
2021/06/18 12:12:21;;;;;;;;;;;;;;;25.32;100.00;100120.94;5116091;28;20057;-72
2021/06/18 12:14:54;;;;;;;;;;;;;;;25.46;100.00;100111.66;5098648;28;20413;-73
2021/06/18 12:17:20;;;;;;;;;;;;;;;25.50;100.00;100117.38;5098301;28;20349;-73
2021/06/18 12:19:48;;;;;;;;;;;;;;;25.49;100.00;100111.19;5098201;28;19911;-74
2021/06/18 12:22:15;;;;;;;;;;;;;;;25.40;100.00;100117.91;5097886;28;19916;-74
2021/06/18 12:24:45;;;;;;;;;;;;;;;25.42;100.00;100107.78;5098175;28;20317;-74
2021/06/18 12:27:12;;;;;;;;;;;;;;;25.35;100.00;100104.38;5097970;28;20471;-73
2021/06/18 12:29:38;;;;;;;;;;;;;;;25.34;100.00;100100.03;5097934;28;19912;-75